createdAt,value
2018-08-22T00:02:12.255Z,19.49
2018-08-22T00:04:41.566Z,19.50
2018-08-22T00:07:10.853Z,19.47
2018-08-22T00:09:40.098Z,19.45
2018-08-22T00:12:09.397Z,19.39
2018-08-22T00:14:38.676Z,19.36
2018-08-22T00:17:08.086Z,19.27
2018-08-22T00:19:37.356Z,19.36
2018-08-22T00:22:06.701Z,19.26
2018-08-22T00:27:20.515Z,19.18
2018-08-22T00:29:50.087Z,19.22
2018-08-22T00:32:19.359Z,19.25
2018-08-22T00:34:48.693Z,19.23
2018-08-22T00:37:17.977Z,19.26
2018-08-22T00:39:47.282Z,19.17
2018-08-22T00:42:16.533Z,19.15
2018-08-22T00:44:45.785Z,19.08
2018-08-22T00:47:15.037Z,18.96
2018-08-22T00:49:44.318Z,18.90
2018-08-22T00:52:13.568Z,18.82
2018-08-22T00:54:42.867Z,18.87
2018-08-22T00:57:12.129Z,18.92
2018-08-22T00:59:41.381Z,18.89
2018-08-22T01:02:10.718Z,18.92
2018-08-22T01:04:40.037Z,18.82
2018-08-22T01:07:09.293Z,18.83
2018-08-22T01:09:38.583Z,18.66
2018-08-22T01:12:07.874Z,18.63
2018-08-22T01:14:37.175Z,18.62
2018-08-22T01:17:06.542Z,18.63
2018-08-22T01:19:35.820Z,18.62
2018-08-22T01:22:05.067Z,18.59
2018-08-22T01:24:34.388Z,18.65
2018-08-22T01:27:03.968Z,18.67
2018-08-22T01:29:33.262Z,18.69
2018-08-22T01:32:02.663Z,18.65
2018-08-22T01:34:31.969Z,18.67
2018-08-22T01:37:01.274Z,18.62
2018-08-22T01:39:30.568Z,18.63
2018-08-22T01:41:59.830Z,18.62
2018-08-22T01:44:29.131Z,18.58
2018-08-22T01:46:58.383Z,18.42
2018-08-22T01:49:27.722Z,18.40
2018-08-22T01:51:57.066Z,18.39
2018-08-22T01:54:26.359Z,18.36
2018-08-22T01:56:55.762Z,18.32
2018-08-22T01:59:25.048Z,18.26
2018-08-22T02:01:54.389Z,18.19
2018-08-22T02:04:23.656Z,18.25
2018-08-22T02:06:52.906Z,18.21
2018-08-22T02:09:22.172Z,18.18
2018-08-22T02:11:51.426Z,18.19
2018-08-22T02:14:20.726Z,18.20
2018-08-22T02:16:50.101Z,18.17
2018-08-22T02:19:19.391Z,18.10
2018-08-22T02:21:48.665Z,18.06
2018-08-22T02:24:17.956Z,17.93
2018-08-22T02:26:47.267Z,17.92
2018-08-22T02:29:16.590Z,17.90
2018-08-22T02:31:45.862Z,17.87
2018-08-22T02:34:15.236Z,17.88
2018-08-22T02:36:44.523Z,17.80
2018-08-22T02:39:13.821Z,17.72
2018-08-22T02:41:49.694Z,17.69
2018-08-22T02:44:18.997Z,17.78
2018-08-22T02:46:48.296Z,17.77
2018-08-22T02:49:17.567Z,17.77
2018-08-22T02:51:46.866Z,17.72
2018-08-22T02:54:16.144Z,17.68
2018-08-22T02:56:45.410Z,17.66
2018-08-22T02:59:14.676Z,17.63
2018-08-22T03:01:43.953Z,17.55
2018-08-22T03:04:13.217Z,17.48
2018-08-22T03:06:42.493Z,17.44
2018-08-22T03:09:11.770Z,17.52
2018-08-22T03:11:41.058Z,17.54
2018-08-22T03:14:10.413Z,17.61
2018-08-22T03:16:39.720Z,17.52
2018-08-22T03:19:08.977Z,17.55
2018-08-22T03:21:38.270Z,17.55
2018-08-22T03:24:07.583Z,17.43
2018-08-22T03:26:36.967Z,17.41
2018-08-22T03:29:06.270Z,17.43
2018-08-22T03:31:35.568Z,17.42
2018-08-22T03:34:05.035Z,17.38
2018-08-22T03:36:34.345Z,17.39
2018-08-22T03:39:03.895Z,17.38
2018-08-22T03:41:32.978Z,17.32
2018-08-22T03:44:02.294Z,17.24
2018-08-22T03:46:31.623Z,17.31
2018-08-22T03:49:00.922Z,17.28
2018-08-22T03:51:30.231Z,17.22
2018-08-22T03:53:59.515Z,17.13
2018-08-22T03:56:28.786Z,17.14
2018-08-22T03:58:58.075Z,17.10
2018-08-22T04:01:27.371Z,17.07
2018-08-22T04:03:56.646Z,17.03
2018-08-22T04:06:25.970Z,16.99
2018-08-22T04:08:55.273Z,16.92
2018-08-22T04:11:24.574Z,16.87
2018-08-22T04:13:53.842Z,16.81
2018-08-22T04:16:23.130Z,16.96
2018-08-22T04:18:52.458Z,16.98
2018-08-22T04:21:21.756Z,16.86
2018-08-22T04:23:51.066Z,16.81
2018-08-22T04:26:20.428Z,16.76
2018-08-22T04:28:49.754Z,16.76
2018-08-22T04:31:19.035Z,16.93
2018-08-22T04:33:48.369Z,17.04
2018-08-22T04:36:17.623Z,17.04
2018-08-22T04:38:47.047Z,16.98
2018-08-22T04:41:16.318Z,17.00
2018-08-22T04:43:45.673Z,17.08
2018-08-22T04:46:14.933Z,17.12
2018-08-22T04:48:44.268Z,17.23
2018-08-22T04:51:13.568Z,17.21
2018-08-22T04:53:42.846Z,17.15
2018-08-22T04:56:12.436Z,17.31
2018-08-22T04:58:41.792Z,17.33
2018-08-22T05:01:11.257Z,17.34
2018-08-22T05:03:40.593Z,17.42
2018-08-22T05:06:09.941Z,17.44
2018-08-22T05:08:39.398Z,17.47
2018-08-22T05:11:08.715Z,17.57
2018-08-22T05:13:38.398Z,17.63
2018-08-22T05:16:07.672Z,17.73
2018-08-22T05:18:36.998Z,17.79
2018-08-22T05:21:06.401Z,17.81
2018-08-22T05:23:35.706Z,17.86
2018-08-22T05:26:05.018Z,17.95
2018-08-22T05:28:34.358Z,18.02
2018-08-22T05:31:03.670Z,18.13
2018-08-22T05:33:33.022Z,18.25
2018-08-22T05:36:02.370Z,18.32
2018-08-22T05:38:31.772Z,18.36
2018-08-22T05:41:01.036Z,18.49
2018-08-22T05:43:30.351Z,18.64
2018-08-22T05:45:59.662Z,18.87
2018-08-22T05:48:29.007Z,19.24
2018-08-22T05:50:58.326Z,19.51
2018-08-22T05:53:27.668Z,19.84
2018-08-22T05:55:56.966Z,20.30
2018-08-22T05:58:26.319Z,20.54
2018-08-22T06:00:55.738Z,20.80
2018-08-22T06:03:25.181Z,21.05
2018-08-22T06:05:54.577Z,21.27
2018-08-22T06:08:23.816Z,21.19
2018-08-22T06:10:53.185Z,21.64
2018-08-22T06:13:22.502Z,21.44
2018-08-22T06:15:51.902Z,21.30
2018-08-22T06:18:21.291Z,21.41
2018-08-22T06:20:50.606Z,21.64
2018-08-22T06:23:20.284Z,21.81
2018-08-22T06:25:49.585Z,21.89
2018-08-22T06:28:19.420Z,22.09
2018-08-22T06:30:48.690Z,22.05
2018-08-22T06:33:17.759Z,22.12
2018-08-22T06:35:47.114Z,22.40
2018-08-22T06:38:16.386Z,22.54
2018-08-22T06:40:45.698Z,22.79
2018-08-22T06:43:15.114Z,22.75
2018-08-22T06:45:44.390Z,23.03
2018-08-22T06:48:13.731Z,23.23
2018-08-22T06:50:43.169Z,23.47
2018-08-22T06:53:12.421Z,23.68
2018-08-22T06:55:41.737Z,23.60
2018-08-22T06:58:11.116Z,23.83
2018-08-22T07:00:40.448Z,23.91
2018-08-22T07:03:09.784Z,23.98
2018-08-22T07:05:39.095Z,23.88
2018-08-22T07:08:08.385Z,23.95
2018-08-22T07:10:37.680Z,24.00
2018-08-22T07:13:06.992Z,24.07
2018-08-22T07:15:36.278Z,24.43
2018-08-22T07:18:05.865Z,24.35
2018-08-22T07:20:35.181Z,24.64
2018-08-22T07:23:04.582Z,24.89
2018-08-22T07:25:33.909Z,24.89
2018-08-22T07:28:03.193Z,25.13
2018-08-22T07:30:32.494Z,24.83
2018-08-22T07:33:01.879Z,25.26
2018-08-22T07:35:31.261Z,25.69
2018-08-22T07:38:00.588Z,25.48
2018-08-22T07:40:29.879Z,25.66
2018-08-22T07:43:00.577Z,25.63
2018-08-22T07:45:29.841Z,25.69
2018-08-22T07:47:59.255Z,25.89
2018-08-22T07:50:28.541Z,25.76
2018-08-22T07:53:04.874Z,26.04
2018-08-22T07:55:39.943Z,26.36
2018-08-22T07:58:09.246Z,25.96
2018-08-22T08:00:38.618Z,26.40
2018-08-22T08:03:07.981Z,26.43
2018-08-22T08:05:37.384Z,26.58
2018-08-22T08:08:06.747Z,26.67
2018-08-22T08:10:37.350Z,26.45
2018-08-22T08:13:18.794Z,27.10
2018-08-22T08:15:48.152Z,26.74
2018-08-22T08:18:17.618Z,26.63
2018-08-22T08:20:46.903Z,26.77
2018-08-22T08:23:16.274Z,26.78
2018-08-22T08:25:45.602Z,27.09
2018-08-22T08:28:14.961Z,27.23
2018-08-22T08:30:44.258Z,27.45
2018-08-22T08:33:13.553Z,27.38
2018-08-22T08:35:42.866Z,27.67
2018-08-22T08:38:12.863Z,27.49
2018-08-22T08:40:42.156Z,27.25
2018-08-22T08:43:11.797Z,27.37
2018-08-22T08:45:41.309Z,27.91
2018-08-22T08:48:10.638Z,28.13
2018-08-22T08:50:40.282Z,28.34
2018-08-22T08:53:09.717Z,28.53
2018-08-22T08:55:39.035Z,28.24
2018-08-22T08:58:08.494Z,28.03
2018-08-22T09:00:37.954Z,28.17
2018-08-22T09:03:07.247Z,28.34
2018-08-22T09:05:36.774Z,28.80
2018-08-22T09:08:06.083Z,28.72
2018-08-22T09:10:35.505Z,28.62
2018-08-22T09:13:07.862Z,29.02
2018-08-22T09:15:37.312Z,29.34
2018-08-22T09:18:06.800Z,29.20
2018-08-22T09:20:36.255Z,28.45
2018-08-22T09:23:05.771Z,28.91
2018-08-22T09:25:34.950Z,28.89
2018-08-22T09:28:04.343Z,28.86
2018-08-22T09:30:33.703Z,28.81
2018-08-22T09:33:03.005Z,29.41
2018-08-22T09:35:32.441Z,29.64
2018-08-22T09:38:01.763Z,29.48
2018-08-22T09:40:31.106Z,29.50
2018-08-22T09:43:00.422Z,30.04
2018-08-22T09:45:29.778Z,29.99
2018-08-22T09:47:59.134Z,30.24
2018-08-22T09:50:28.427Z,30.22
2018-08-22T09:52:57.772Z,30.33
2018-08-22T09:55:27.061Z,29.95
2018-08-22T09:57:56.466Z,30.13
2018-08-22T10:00:30.936Z,30.65
2018-08-22T10:03:00.273Z,30.52
2018-08-22T10:05:29.546Z,30.32
2018-08-22T10:07:58.854Z,29.81
2018-08-22T10:10:28.211Z,30.19
2018-08-22T10:12:57.345Z,30.54
2018-08-22T10:15:26.727Z,30.47
2018-08-22T10:17:55.994Z,30.57
2018-08-22T10:20:25.263Z,31.21
2018-08-22T10:22:54.605Z,31.36
2018-08-22T10:25:23.955Z,31.65
2018-08-22T10:27:53.250Z,31.34
2018-08-22T10:30:22.584Z,31.44
2018-08-22T10:32:52.040Z,31.23
2018-08-22T10:35:21.269Z,30.95
2018-08-22T10:37:50.533Z,31.50
2018-08-22T10:40:19.847Z,31.66
2018-08-22T10:42:49.150Z,31.35
2018-08-22T10:45:18.694Z,31.55
2018-08-22T10:47:48.021Z,31.33
2018-08-22T10:50:17.342Z,31.62
2018-08-22T10:52:46.647Z,31.55
2018-08-22T10:55:15.983Z,31.06
2018-08-22T10:57:45.267Z,31.85
2018-08-22T11:00:14.671Z,32.18
2018-08-22T11:02:43.925Z,31.80
2018-08-22T11:05:13.381Z,32.35
2018-08-22T11:07:42.771Z,32.29
2018-08-22T11:10:12.154Z,32.48
2018-08-22T11:12:41.478Z,31.69
2018-08-22T11:15:10.817Z,30.70
2018-08-22T11:17:40.347Z,31.50
2018-08-22T11:20:09.672Z,31.70
2018-08-22T11:22:55.989Z,32.13
2018-08-22T11:25:36.346Z,31.86
2018-08-22T11:28:22.732Z,32.56
2018-08-22T11:31:09.133Z,31.36
2018-08-22T11:33:55.530Z,30.74
2018-08-22T11:36:23.295Z,30.95
2018-08-22T11:38:53.370Z,31.64
2018-08-22T11:41:22.727Z,31.49
2018-08-22T11:43:52.021Z,31.09
2018-08-22T11:46:21.724Z,31.50
2018-08-22T11:48:51.242Z,31.60
2018-08-22T11:51:20.750Z,31.94
2018-08-22T11:53:50.028Z,31.39
2018-08-22T11:56:19.511Z,30.92
2018-08-22T11:58:51.115Z,30.80
2018-08-22T12:01:20.395Z,30.78
2018-08-22T12:03:49.686Z,30.70
2018-08-22T12:06:19.091Z,30.92
2018-08-22T12:08:48.393Z,31.07
2018-08-22T12:11:17.855Z,30.88
2018-08-22T12:13:47.123Z,30.96
2018-08-22T12:16:16.550Z,30.63
2018-08-22T12:18:45.958Z,30.55
2018-08-22T12:21:15.209Z,30.58
2018-08-22T12:23:44.520Z,31.39
2018-08-22T12:26:13.934Z,31.62
2018-08-22T12:28:43.678Z,31.47
2018-08-22T12:31:13.180Z,31.43
2018-08-22T12:33:42.737Z,31.40
2018-08-22T12:36:12.016Z,31.23
2018-08-22T12:38:41.469Z,30.84
2018-08-22T12:41:10.804Z,30.88
2018-08-22T12:43:40.602Z,30.98
2018-08-22T12:46:10.053Z,31.08
2018-08-22T12:48:39.526Z,31.75
2018-08-22T12:51:08.966Z,31.96
2018-08-22T12:53:38.422Z,32.42
2018-08-22T12:56:07.852Z,32.96
2018-08-22T12:58:37.246Z,32.85
2018-08-22T13:01:06.885Z,32.75
2018-08-22T13:03:36.355Z,32.73
2018-08-22T13:06:06.075Z,33.55
2018-08-22T13:08:35.466Z,33.72
2018-08-22T13:11:05.017Z,33.60
2018-08-22T13:13:34.548Z,34.06
2018-08-22T13:16:04.654Z,33.44
2018-08-22T13:18:34.972Z,33.18
2018-08-22T13:21:04.388Z,33.69
2018-08-22T13:23:33.811Z,33.57
2018-08-22T13:26:04.346Z,33.53
2018-08-22T13:28:33.811Z,33.34
2018-08-22T13:31:03.685Z,33.60
2018-08-22T13:33:33.483Z,33.99
2018-08-22T13:36:03.052Z,33.82
2018-08-22T13:38:32.452Z,34.17
2018-08-22T13:41:08.784Z,34.54
2018-08-22T13:43:38.144Z,34.37
2018-08-22T13:46:07.716Z,34.21
2018-08-22T13:48:37.145Z,34.14
2018-08-22T13:51:06.905Z,33.20
2018-08-22T13:53:36.636Z,33.34
2018-08-22T13:56:06.415Z,33.10
2018-08-22T13:58:35.938Z,33.57
2018-08-22T14:01:05.788Z,34.20
2018-08-22T14:03:35.338Z,34.30
2018-08-22T14:06:04.863Z,34.27
2018-08-22T14:08:38.567Z,34.56
2018-08-22T14:11:08.022Z,33.89
2018-08-22T14:13:37.739Z,33.35
2018-08-22T14:16:07.287Z,33.19
2018-08-22T14:18:37.549Z,33.77
2018-08-22T14:21:07.064Z,33.53
2018-08-22T14:23:50.228Z,32.93
2018-08-22T14:26:19.850Z,33.00
2018-08-22T14:28:50.036Z,33.65
2018-08-22T14:31:19.359Z,33.37
2018-08-22T14:33:48.869Z,33.09
2018-08-22T14:36:19.279Z,33.46
2018-08-22T14:38:55.374Z,33.72
2018-08-22T14:41:24.800Z,33.74
2018-08-22T14:43:54.260Z,33.27
2018-08-22T14:46:23.809Z,33.26
2018-08-22T14:48:53.253Z,32.56
2018-08-22T14:51:22.589Z,32.64
2018-08-22T14:53:51.960Z,32.36
2018-08-22T14:56:21.390Z,32.14
2018-08-22T14:58:51.388Z,32.06
2018-08-22T15:01:20.811Z,31.73
2018-08-22T15:03:50.241Z,31.48
2018-08-22T15:06:19.842Z,31.38
2018-08-22T15:08:50.899Z,31.25
2018-08-22T15:11:20.260Z,31.21
2018-08-22T15:13:49.580Z,31.17
2018-08-22T15:16:19.076Z,31.14
2018-08-22T15:18:48.572Z,31.18
2018-08-22T15:21:17.940Z,31.06
2018-08-22T15:23:47.862Z,31.04
2018-08-22T15:26:17.192Z,31.00
2018-08-22T15:28:47.220Z,31.02
2018-08-22T15:31:16.610Z,30.96
2018-08-22T15:33:46.566Z,30.83
2018-08-22T15:36:16.648Z,30.74
2018-08-22T15:38:45.998Z,30.73
2018-08-22T15:41:15.487Z,30.62
2018-08-22T15:43:44.738Z,30.57
2018-08-22T15:46:14.227Z,29.66
2018-08-22T15:48:43.719Z,28.83
2018-08-22T15:51:13.209Z,28.19
2018-08-22T15:53:42.571Z,28.13
2018-08-22T15:56:12.065Z,27.95
2018-08-22T15:58:41.616Z,27.67
2018-08-22T16:01:11.052Z,27.53
2018-08-22T16:03:40.470Z,27.42
2018-08-22T16:06:09.963Z,27.41
2018-08-22T16:08:39.481Z,27.48
2018-08-22T16:11:08.816Z,27.46
2018-08-22T16:13:39.244Z,27.34
2018-08-22T16:16:08.789Z,27.21
2018-08-22T16:18:38.259Z,27.27
2018-08-22T16:21:08.140Z,27.19
2018-08-22T16:23:37.957Z,27.05
2018-08-22T16:26:07.248Z,27.07
2018-08-22T16:28:51.393Z,26.92
2018-08-22T16:31:21.651Z,26.82
2018-08-22T16:33:51.141Z,26.80
2018-08-22T16:36:25.664Z,26.75
2018-08-22T16:38:55.229Z,26.79
2018-08-22T16:41:24.634Z,26.76
2018-08-22T16:43:54.021Z,26.80
2018-08-22T16:46:23.121Z,26.90
2018-08-22T16:48:54.130Z,26.95
2018-08-22T16:51:24.067Z,26.94
2018-08-22T16:54:01.097Z,27.14
2018-08-22T16:56:32.211Z,27.26
2018-08-22T16:59:07.054Z,27.31
2018-08-22T17:01:37.376Z,27.50
2018-08-22T17:04:07.563Z,27.81
2018-08-22T17:06:36.974Z,28.04
2018-08-22T17:09:09.453Z,28.44
2018-08-22T17:11:38.766Z,29.75
2018-08-22T17:14:08.303Z,30.38
2018-08-22T17:16:37.684Z,31.10
2018-08-22T17:19:07.212Z,31.34
2018-08-22T17:21:37.196Z,31.97
2018-08-22T17:24:06.984Z,31.66
2018-08-22T17:26:37.228Z,31.60
2018-08-22T17:29:08.053Z,31.18
2018-08-22T17:31:44.467Z,31.15
2018-08-22T17:34:14.079Z,31.73
2018-08-22T17:36:52.231Z,31.56
2018-08-22T17:39:22.093Z,31.74
2018-08-22T17:41:55.618Z,31.70
2018-08-22T17:44:25.256Z,31.80
2018-08-22T17:46:55.201Z,31.50
2018-08-22T17:49:24.765Z,31.00
2018-08-22T17:52:06.736Z,30.46
2018-08-22T17:54:36.642Z,29.36
2018-08-22T17:57:24.469Z,28.82
2018-08-22T17:59:56.970Z,28.32
2018-08-22T18:02:26.536Z,28.08
2018-08-22T18:05:03.967Z,27.80
2018-08-22T18:07:33.701Z,27.51
2018-08-22T18:10:04.970Z,27.30
2018-08-22T18:12:34.792Z,27.10
2018-08-22T18:15:04.875Z,26.92
2018-08-22T18:17:35.654Z,26.73
2018-08-22T18:20:05.445Z,26.57
2018-08-22T18:22:36.637Z,26.41
2018-08-22T18:25:07.083Z,26.21
2018-08-22T18:27:36.749Z,26.18
2018-08-22T18:30:09.867Z,26.05
2018-08-22T18:32:39.525Z,25.87
2018-08-22T18:35:10.970Z,25.67
2018-08-22T18:37:41.325Z,25.46
2018-08-22T18:40:29.596Z,25.34
2018-08-22T18:43:06.291Z,25.22
2018-08-22T18:45:37.955Z,25.12
2018-08-22T18:48:07.469Z,25.06
2018-08-22T18:50:37.114Z,24.95
2018-08-22T18:53:07.129Z,24.84
2018-08-22T18:55:36.841Z,24.72
2018-08-22T18:58:07.018Z,24.59
2018-08-22T19:00:38.373Z,24.44
2018-08-22T19:03:07.990Z,24.37
2018-08-22T19:05:39.314Z,24.27
2018-08-22T19:08:17.061Z,24.28
2018-08-22T19:10:50.030Z,24.17
2018-08-22T19:13:22.181Z,24.11
2018-08-22T19:16:01.572Z,23.97
2018-08-22T19:18:31.960Z,23.94
2018-08-22T19:21:02.978Z,23.80
2018-08-22T19:23:33.348Z,23.74
2018-08-22T19:26:04.071Z,23.65
2018-08-22T19:29:01.981Z,23.46
2018-08-22T19:31:32.012Z,23.42
2018-08-22T19:34:01.571Z,23.33
2018-08-22T19:36:31.120Z,23.27
2018-08-22T19:39:00.815Z,23.25
2018-08-22T19:41:33.654Z,23.21
2018-08-22T19:44:03.311Z,23.18
2018-08-22T19:46:32.869Z,23.17
2018-08-22T19:49:33.290Z,23.05
2018-08-22T19:52:02.834Z,22.97
2018-08-22T19:54:32.436Z,22.92
2018-08-22T19:57:01.926Z,22.84
2018-08-22T19:59:31.469Z,22.78
2018-08-22T20:02:03.191Z,22.83
2018-08-22T20:04:34.554Z,22.72
2018-08-22T20:07:03.961Z,22.58
2018-08-22T20:09:33.685Z,22.57
2018-08-22T20:12:03.104Z,22.57
2018-08-22T20:14:32.574Z,22.57
2018-08-22T20:17:02.209Z,22.46
2018-08-22T20:19:35.929Z,22.37
2018-08-22T20:22:06.026Z,22.29
2018-08-22T20:24:35.602Z,22.28
2018-08-22T20:27:05.424Z,22.20
2018-08-22T20:29:35.066Z,22.11
2018-08-22T20:32:04.572Z,22.18
2018-08-22T20:34:34.721Z,22.18
2018-08-22T20:37:04.126Z,22.15
2018-08-22T20:39:33.695Z,22.11
2018-08-22T20:42:08.343Z,22.12
2018-08-22T20:44:40.073Z,22.07
2018-08-22T20:47:09.410Z,22.06
2018-08-22T20:49:38.888Z,22.04
2018-08-22T20:52:08.277Z,21.89
2018-08-22T20:54:37.716Z,21.80
2018-08-22T20:57:07.087Z,21.86
2018-08-22T20:59:36.422Z,21.90
2018-08-22T21:02:06.616Z,21.82
2018-08-22T21:04:36.593Z,21.80
2018-08-22T21:07:06.410Z,21.73
2018-08-22T21:09:35.785Z,21.78
2018-08-22T21:12:05.258Z,21.63
2018-08-22T21:14:34.629Z,21.63
2018-08-22T21:17:04.126Z,21.72
2018-08-22T21:19:33.540Z,21.61
2018-08-22T21:22:08.661Z,21.53
2018-08-22T21:24:38.153Z,21.50
2018-08-22T21:27:07.459Z,21.44
2018-08-22T21:29:36.762Z,21.35
2018-08-22T21:32:06.735Z,21.34
2018-08-22T21:34:36.238Z,21.31
2018-08-22T21:37:21.487Z,21.29
2018-08-22T21:39:50.854Z,21.16
2018-08-22T21:42:29.212Z,21.13
2018-08-22T21:44:58.631Z,21.12
2018-08-22T21:47:27.978Z,21.11
2018-08-22T21:49:57.394Z,21.08
2018-08-22T21:52:27.970Z,20.99
2018-08-22T21:54:57.309Z,20.95
2018-08-22T21:57:26.543Z,20.93
2018-08-22T22:00:01.671Z,20.95
2018-08-22T22:02:30.936Z,20.87
2018-08-22T22:05:00.311Z,20.82
2018-08-22T22:07:29.617Z,20.76
2018-08-22T22:10:04.078Z,20.72
2018-08-22T22:12:37.289Z,20.67
2018-08-22T22:15:06.960Z,20.72
2018-08-22T22:17:36.364Z,20.64
2018-08-22T22:20:05.872Z,20.54
2018-08-22T22:22:35.217Z,20.47
2018-08-22T22:25:06.083Z,20.42
2018-08-22T22:27:36.455Z,20.45
2018-08-22T22:30:06.897Z,20.39
2018-08-22T22:32:36.195Z,20.38
2018-08-22T22:35:05.862Z,20.43
2018-08-22T22:37:35.111Z,20.46
2018-08-22T22:40:05.263Z,20.39
2018-08-22T22:42:34.564Z,20.35
2018-08-22T22:45:03.999Z,20.41
2018-08-22T22:47:34.314Z,20.38
2018-08-22T22:50:04.616Z,20.45
2018-08-22T22:52:38.347Z,20.37
2018-08-22T22:55:08.911Z,20.26
2018-08-22T22:57:39.461Z,20.23
2018-08-22T23:00:11.565Z,20.23
2018-08-22T23:02:40.947Z,20.18
2018-08-22T23:05:10.498Z,20.15
2018-08-22T23:07:42.801Z,20.10
2018-08-22T23:10:14.051Z,20.01
2018-08-22T23:12:44.590Z,19.99
2018-08-22T23:15:22.286Z,19.97
2018-08-22T23:17:52.986Z,19.98
2018-08-22T23:20:33.390Z,19.95
2018-08-22T23:23:03.018Z,19.85
2018-08-22T23:25:32.312Z,19.80
2018-08-22T23:28:01.621Z,19.76
2018-08-22T23:30:35.066Z,19.73
2018-08-22T23:33:04.482Z,19.78
2018-08-22T23:35:34.861Z,19.73
2018-08-22T23:38:05.241Z,19.69
2018-08-22T23:40:35.385Z,19.69
2018-08-22T23:43:04.635Z,19.68
2018-08-22T23:45:37.337Z,19.69
2018-08-22T23:48:07.170Z,19.67
2018-08-22T23:50:58.129Z,19.63
2018-08-22T23:53:31.133Z,19.52
2018-08-22T23:56:17.297Z,19.45
2018-08-22T23:58:47.374Z,19.43
